Time;durP1;ratioP1;P1;durP2;ratioP2;P2;SDS_P1;SDS_P2;PMS_P1;PMS_P2;Temp;Humidity;BMP_temperature;BMP_pressure;BME280_temperature;BME280_humidity;BME280_pressure;Samples;Min_cycle;Max_cycle;Signal;HPM_P1;HPM_P2
2022/06/23 00:01:17;;;;;;;5.57;4.93;;;;;;;20.66;62.24;98500.94;6309035;22;43798;-72
2022/06/23 00:03:48;;;;;;;4.57;4.20;;;;;;;20.60;62.20;98498.91;6282134;22;43204;-72
2022/06/23 00:06:36;;;;;;;4.50;4.10;;;;;;;20.56;62.21;98484.97;6309549;22;40769;-72
2022/06/23 00:09:36;;;;;;;5.20;4.70;;;;;;;20.56;61.88;98489.50;6282854;22;41800;-72
2022/06/23 00:12:20;;;;;;;4.70;3.90;;;;;;;20.52;62.00;98493.56;6284000;22;42983;-72
2022/06/23 00:14:51;;;;;;;4.97;4.50;;;;;;;20.49;62.24;98483.13;6283527;22;42313;-72
2022/06/23 00:17:24;;;;;;;4.33;3.93;;;;;;;20.47;62.49;98490.50;6311170;22;39926;-72
2022/06/23 00:19:52;;;;;;;4.77;3.80;;;;;;;20.40;62.58;98483.09;6310992;22;42677;-72
2022/06/23 00:22:23;;;;;;;4.10;3.70;;;;;;;20.41;62.52;98498.22;6310824;22;42781;-72
2022/06/23 00:24:56;;;;;;;4.47;4.07;;;;;;;20.36;63.11;98484.44;6283096;22;42168;-72
2022/06/23 00:27:29;;;;;;;5.17;4.53;;;;;;;20.36;64.00;98491.69;6311004;22;39870;-72
2022/06/23 00:30:01;;;;;;;4.87;4.37;;;;;;;20.32;63.78;98503.72;6282856;22;42817;-72
2022/06/23 00:32:29;;;;;;;4.87;4.47;;;;;;;20.28;63.77;98500.53;6310929;22;43699;-72
2022/06/23 00:35:00;;;;;;;5.13;4.70;;;;;;;19.98;64.50;98460.84;6310443;22;42280;-72
2022/06/23 00:37:29;;;;;;;4.90;4.50;;;;;;;20.16;64.94;98496.47;6283149;22;40174;-72
2022/06/23 00:40:01;;;;;;;5.40;4.73;;;;;;;20.12;64.95;98481.69;6282940;22;40381;-72
2022/06/23 00:42:33;;;;;;;5.00;4.60;;;;;;;20.09;65.03;98490.09;6283454;22;41945;-72
2022/06/23 00:45:05;;;;;;;5.07;4.60;;;;;;;20.08;64.73;98485.72;6282581;22;42385;-72
2022/06/23 00:47:38;;;;;;;7.33;4.93;;;;;;;20.07;65.39;98479.50;6310860;22;40013;-72
2022/06/23 00:50:26;;;;;;;4.87;4.47;;;;;;;20.06;65.20;98475.13;6310627;22;42791;-72
2022/06/23 00:53:02;;;;;;;5.17;4.57;;;;;;;20.03;64.91;98488.88;6283429;22;41999;-72
2022/06/23 00:55:42;;;;;;;4.87;4.47;;;;;;;19.99;64.65;98487.56;6283014;22;41179;-72
2022/06/23 00:58:23;;;;;;;4.93;4.43;;;;;;;19.96;64.36;98484.34;6311303;22;40977;-72
2022/06/23 01:00:53;;;;;;;4.30;3.90;;;;;;;19.76;64.68;98464.13;6310869;22;41994;-72
2022/06/23 01:03:28;;;;;;;4.80;4.30;;;;;;;19.84;65.08;98493.72;6310558;22;42858;-72
2022/06/23 01:06:00;;;;;;;5.03;4.27;;;;;;;19.78;65.45;98494.38;6283410;22;43245;-72
2022/06/23 01:08:35;;;;;;;5.20;4.80;;;;;;;19.71;65.05;98499.53;6283490;22;40650;-72
2022/06/23 01:11:14;;;;;;;4.77;4.37;;;;;;;19.66;65.19;98497.34;6310823;22;41459;-72
2022/06/23 01:13:49;;;;;;;5.63;4.30;;;;;;;19.60;65.14;98492.63;6311064;22;43866;-72
2022/06/23 01:16:21;;;;;;;4.47;4.07;;;;;;;19.56;65.25;98491.25;6310528;22;43352;-72
2022/06/23 01:18:54;;;;;;;5.10;4.70;;;;;;;19.53;65.64;98494.28;6283772;22;39951;-72
2022/06/23 01:21:26;;;;;;;5.73;4.33;;;;;;;19.51;65.21;98493.59;6310379;22;41865;-72
2022/06/23 01:24:20;;;;;;;5.53;5.13;;;;;;;19.50;65.18;98497.28;6283555;22;42913;-72
2022/06/23 01:27:11;;;;;;;5.23;4.77;;;;;;;19.45;65.84;98494.19;6258174;22;42325;-72
2022/06/23 01:29:44;;;;;;;5.57;5.07;;;;;;;19.44;66.54;98508.63;6310494;22;40086;-72
2022/06/23 01:32:20;;;;;;;6.33;5.73;;;;;;;19.42;67.40;98507.94;6257631;22;42414;-72
2022/06/23 01:34:55;;;;;;;6.03;5.53;;;;;;;19.40;67.40;98518.03;6310648;22;42644;-72
2022/06/23 01:37:28;;;;;;;6.17;5.57;;;;;;;19.38;68.02;98509.28;6283363;22;42176;-72
2022/06/23 01:40:06;;;;;;;8.53;6.27;;;;;;;19.36;68.12;98516.66;6257568;22;38880;-72
2022/06/23 01:42:40;;;;;;;5.53;5.03;;;;;;;19.36;67.91;98522.00;6283328;22;41869;-72
2022/06/23 01:45:18;;;;;;;6.63;5.90;;;;;;;19.35;68.57;98520.34;6310615;22;43794;-71
2022/06/23 01:47:51;;;;;;;5.80;5.30;;;;;;;19.35;69.02;98514.97;6310664;22;42160;-72
2022/06/23 01:50:38;;;;;;;5.80;5.20;;;;;;;19.35;69.09;98509.59;6310670;22;39975;-73
2022/06/23 01:53:13;;;;;;;5.83;5.27;;;;;;;19.35;69.73;98504.22;6257617;22;41030;-72
2022/06/23 01:55:58;;;;;;;6.20;5.60;;;;;;;19.35;70.12;98506.91;6282412;22;43824;-72
2022/06/23 01:58:30;;;;;;;5.60;5.00;;;;;;;19.33;69.88;98515.13;6283501;22;42260;-72
2022/06/23 02:01:03;;;;;;;5.80;5.20;;;;;;;19.32;69.96;98516.13;6310730;22;39924;-72
2022/06/23 02:03:40;;;;;;;4.77;4.27;;;;;;;19.32;69.48;98509.91;6257721;22;40852;-72
2022/06/23 02:06:22;;;;;;;5.53;5.03;;;;;;;19.28;69.08;98519.28;6310623;22;42771;-72
2022/06/23 02:08:57;;;;;;;4.57;4.07;;;;;;;19.24;68.93;98520.59;6310637;22;42414;-72
2022/06/23 02:11:31;;;;;;;4.30;3.90;;;;;;;19.12;68.83;98509.28;6283143;22;40074;-72
2022/06/23 02:14:08;;;;;;;4.63;4.23;;;;;;;19.13;68.73;98515.50;6310619;22;42853;-72
2022/06/23 02:16:44;;;;;;;4.80;4.40;;;;;;;19.08;68.27;98509.75;6310148;22;42766;-72
2022/06/23 02:19:21;;;;;;;4.73;4.33;;;;;;;19.01;68.09;98505.03;6283170;22;41621;-72
2022/06/23 02:21:53;;;;;;;4.43;4.10;;;;;;;18.69;68.28;98464.53;6257939;22;38885;-72
2022/06/23 02:24:27;;;;;;;4.83;4.40;;;;;;;18.88;67.98;98507.28;6282876;22;41368;-72
2022/06/23 02:27:02;;;;;;;5.93;4.70;;;;;;;18.79;67.62;98513.56;6257571;22;41478;-72
2022/06/23 02:29:36;;;;;;;4.90;4.50;;;;;;;18.77;67.98;98520.13;6310134;22;42279;-72
2022/06/23 02:32:16;;;;;;;4.87;4.30;;;;;;;18.72;67.73;98523.25;6282824;22;40107;-72
2022/06/23 02:34:50;;;;;;;5.13;4.73;;;;;;;18.67;67.76;98520.19;6310492;22;42757;-72
2022/06/23 02:37:54;;;;;;;5.17;4.73;;;;;;;18.64;68.10;98507.09;6282252;22;43001;-72
2022/06/23 02:40:32;;;;;;;5.30;4.80;;;;;;;18.62;68.30;98511.78;6282554;22;43604;-72
2022/06/23 02:43:05;;;;;;;4.73;4.33;;;;;;;18.58;68.65;98510.38;6283239;22;40375;-72
2022/06/23 02:45:55;;;;;;;6.10;5.30;;;;;;;18.55;69.70;98505.28;6283076;22;42460;-72
2022/06/23 02:48:42;;;;;;;6.20;5.70;;;;;;;18.54;69.35;98503.63;6282776;22;42924;-72
2022/06/23 02:51:36;;;;;;;5.50;5.00;;;;;;;18.50;69.21;98510.28;6282774;22;41204;-72
2022/06/23 02:54:31;;;;;;;5.40;4.90;;;;;;;18.46;68.82;98519.63;6282864;22;40804;-72
2022/06/23 02:57:23;;;;;;;5.10;4.60;;;;;;;18.40;68.71;98523.78;6283013;22;41818;-72
2022/06/23 02:59:57;;;;;;;4.77;4.27;;;;;;;18.37;69.05;98536.66;6278141;22;42859;-72
2022/06/23 03:02:32;;;;;;;4.93;4.43;;;;;;;18.31;68.71;98528.22;6257034;22;41437;-72
2022/06/23 03:05:06;;;;;;;5.00;4.60;;;;;;;18.27;68.29;98537.56;6309639;22;39930;-72
2022/06/23 03:07:40;;;;;;;5.60;4.60;;;;;;;18.16;68.25;98524.38;6282957;22;42849;-72
2022/06/23 03:10:17;;;;;;;5.07;4.60;;;;;;;18.16;68.13;98536.94;6310274;22;42769;-72
2022/06/23 03:12:50;;;;;;;5.27;4.83;;;;;;;18.14;68.21;98545.13;6282679;22;41281;-72
2022/06/23 03:15:25;;;;;;;5.10;4.70;;;;;;;18.12;68.00;98557.84;6257111;22;40016;-72
2022/06/23 03:17:57;;;;;;;4.83;4.10;;;;;;;18.08;68.11;98555.59;6282862;22;42892;-72
2022/06/23 03:20:39;;;;;;;4.70;4.20;;;;;;;18.07;68.15;98559.28;6282523;22;42771;-72
2022/06/23 03:23:16;;;;;;;4.90;4.50;;;;;;;18.05;68.65;98562.09;6310458;22;42382;-72
2022/06/23 03:25:49;;;;;;;5.87;5.27;;;;;;;18.06;69.14;98561.09;6309976;22;40150;-72
2022/06/23 03:28:22;;;;;;;6.10;5.50;;;;;;;17.98;69.42;98544.94;6310372;22;42823;-72
2022/06/23 03:30:58;;;;;;;5.57;5.07;;;;;;;18.11;69.39;98563.34;6281978;22;41715;-72
2022/06/23 03:33:34;;;;;;;5.27;4.40;;;;;;;18.15;69.64;98554.03;6256945;22;41129;-72
2022/06/23 03:36:10;;;;;;;5.27;4.87;;;;;;;18.18;69.58;98556.38;6309733;22;40004;-72
2022/06/23 03:41:37;;;;;;;4.93;4.43;;;;;;;18.22;69.39;98576.53;6282082;22;42863;-72
2022/06/23 03:44:16;;;;;;;4.10;3.77;;;;;;;18.25;69.30;98582.44;6282320;22;41459;-72
2022/06/23 03:46:51;;;;;;;4.90;4.50;;;;;;;18.28;69.12;98579.47;6284197;22;39955;-72
2022/06/23 03:49:34;;;;;;;5.57;5.07;;;;;;;18.31;69.00;98587.19;6311084;22;42747;-72
2022/06/23 03:52:14;;;;;;;5.47;4.97;;;;;;;18.34;68.57;98593.25;6284073;22;42971;-72
2022/06/23 03:54:48;;;;;;;6.07;5.07;;;;;;;18.37;69.11;98592.94;6283279;22;43115;-72
2022/06/23 03:57:22;;;;;;;5.73;5.23;;;;;;;18.42;69.14;98590.66;6311338;22;40761;-72
2022/06/23 04:00:04;;;;;;;6.70;6.07;;;;;;;18.45;69.22;98588.50;6257966;22;41002;-72
2022/06/23 04:02:40;;;;;;;6.57;5.93;;;;;;;18.51;69.62;98581.69;6311228;22;42786;-72
2022/06/23 04:05:18;;;;;;;6.07;5.43;;;;;;;18.57;69.88;98578.41;6311031;22;42711;-72
2022/06/23 04:07:50;;;;;;;5.93;5.33;;;;;;;18.66;69.36;98596.31;6311417;22;39955;-72
2022/06/23 04:10:24;;;;;;;4.87;4.43;;;;;;;18.70;69.21;98584.25;6311104;22;42779;-72
2022/06/23 04:12:56;;;;;;;4.50;4.10;;;;;;;18.77;68.82;98593.38;6257973;22;43269;-72
2022/06/23 04:15:30;;;;;;;5.53;5.13;;;;;;;18.82;68.79;98588.38;6310804;22;43220;-72
2022/06/23 04:18:04;;;;;;;5.20;4.70;;;;;;;18.86;68.53;98597.81;6283789;22;39968;-72
2022/06/23 04:20:37;;;;;;;5.33;4.87;;;;;;;18.89;68.74;98600.22;6257292;22;40856;-72
2022/06/23 04:23:14;;;;;;;5.77;5.17;;;;;;;18.94;68.64;98591.66;6311098;22;43713;-72
2022/06/23 04:25:50;;;;;;;6.37;5.30;;;;;;;18.97;68.64;98602.94;6310731;22;42399;-72
2022/06/23 04:28:24;;;;;;;5.60;5.10;;;;;;;19.04;68.41;98602.34;6283973;22;39088;-72
2022/06/23 04:30:54;;;;;;;5.30;4.83;;;;;;;19.12;68.07;98599.72;6282948;22;41828;-72
2022/06/23 04:33:25;;;;;;;8.07;5.53;;;;;;;19.17;68.98;98602.75;6311000;22;43611;-72
2022/06/23 04:35:54;;;;;;;6.07;5.57;;;;;;;19.24;69.00;98603.84;6257683;22;43770;-72
2022/06/23 04:38:30;;;;;;;6.50;5.90;;;;;;;19.30;68.55;98608.56;6283373;22;40798;-72
2022/06/23 04:41:02;;;;;;;6.57;5.93;;;;;;;19.37;68.58;98610.47;6310927;22;42093;-72
2022/06/23 04:43:37;;;;;;;5.70;5.10;;;;;;;19.45;68.16;98608.84;6283116;22;41941;-72
2022/06/23 04:46:10;;;;;;;5.30;4.87;;;;;;;19.56;68.20;98601.38;6283612;22;42336;-72
2022/06/23 04:48:49;;;;;;;5.43;4.93;;;;;;;19.65;68.40;98603.16;6311383;22;41035;-72
2022/06/23 04:51:26;;;;;;;6.00;5.50;;;;;;;19.73;67.86;98613.91;6310693;22;42567;-72
2022/06/23 04:54:00;;;;;;;5.67;5.07;;;;;;;19.83;67.86;98621.03;6283770;22;42767;-72
2022/06/23 04:56:40;;;;;;;5.40;4.90;;;;;;;19.92;67.05;98631.66;6282862;22;41320;-72
2022/06/23 04:59:31;;;;;;;6.90;6.30;;;;;;;19.99;67.83;98637.25;6257524;22;41489;-72
2022/06/23 05:02:12;;;;;;;7.60;6.77;;;;;;;20.00;67.72;98633.53;6283324;22;40834;-72
2022/06/23 05:04:43;;;;;;;7.23;5.93;;;;;;;20.13;67.50;98635.78;6283273;22;41769;-72
2022/06/23 05:07:22;;;;;;;6.87;5.50;;;;;;;20.28;67.20;98637.69;6257813;22;41180;-72
2022/06/23 05:09:55;;;;;;;6.33;5.70;;;;;;;20.39;66.55;98642.81;6283538;22;40251;-72
2022/06/23 05:12:27;;;;;;;6.30;5.70;;;;;;;20.51;66.27;98637.97;6283679;22;41910;-72
2022/06/23 05:15:03;;;;;;;6.10;5.50;;;;;;;20.65;66.37;98639.16;6310488;22;43038;-72
2022/06/23 05:17:35;;;;;;;7.70;5.47;;;;;;;20.76;66.32;98630.81;6283256;22;42517;-72
2022/06/23 05:20:07;;;;;;;6.27;5.77;;;;;;;20.89;66.10;98636.53;6257537;22;38929;-72
2022/06/23 05:22:39;;;;;;;6.67;6.07;;;;;;;21.00;66.10;98636.22;6283673;22;41700;-72
2022/06/23 05:25:30;;;;;;;6.70;6.10;;;;;;;21.13;66.24;98633.88;6310492;22;44416;-72
2022/06/23 05:27:59;;;;;;;6.47;5.97;;;;;;;21.23;65.78;98635.56;6311559;22;42351;-72
2022/06/23 05:30:31;;;;;;;7.27;6.57;;;;;;;21.24;66.27;98639.97;6257109;22;40302;-72
2022/06/23 05:33:04;;;;;;;6.97;6.27;;;;;;;21.25;66.30;98642.47;6310902;22;42752;-72
2022/06/23 05:35:37;;;;;;;9.00;7.00;;;;;;;21.29;65.80;98645.66;6310175;22;42721;-72
2022/06/23 05:38:08;;;;;;;6.47;5.87;;;;;;;21.32;65.51;98639.94;6310752;22;43074;-72
2022/06/23 05:40:43;;;;;;;6.63;6.03;;;;;;;21.47;65.66;98646.34;6283059;22;39713;-73
2022/06/23 05:43:12;;;;;;;7.33;6.33;;;;;;;21.61;65.93;98642.13;6283482;22;42152;-72
2022/06/23 05:45:47;;;;;;;7.10;6.30;;;;;;;21.75;65.43;98639.56;6310022;22;42782;-72
2022/06/23 05:48:20;;;;;;;7.00;6.27;;;;;;;21.72;64.75;98618.34;6310661;22;43203;-72
2022/06/23 05:50:52;;;;;;;6.53;5.93;;;;;;;21.93;64.94;98635.78;6283413;22;40270;-72
2022/06/23 05:53:26;;;;;;;7.47;6.70;;;;;;;22.16;64.79;98634.06;6257608;22;42121;-72
2022/06/23 05:56:00;;;;;;;8.50;7.70;;;;;;;22.51;63.74;98649.75;6283055;22;42053;-72
2022/06/23 05:58:34;;;;;;;8.23;7.53;;;;;;;22.75;62.90;98647.94;6310725;22;42444;-72
2022/06/23 06:01:10;;;;;;;7.80;6.17;;;;;;;22.91;62.62;98654.09;6282926;22;40896;-71
2022/06/23 06:03:43;;;;;;;7.03;5.87;;;;;;;23.06;62.47;98656.88;6283065;22;42283;-76
2022/06/23 06:06:12;;;;;;;7.63;6.93;;;;;;;23.16;62.89;98652.06;6281819;22;43363;-76
2022/06/23 06:11:31;;;;;;;7.13;6.53;;;;;;;23.40;62.66;98647.47;6208392;22;40031;-78
2022/06/23 06:14:00;;;;;;;7.23;6.53;;;;;;;23.54;62.84;98646.72;6283570;22;41924;-77
2022/06/23 06:16:28;;;;;;;11.23;8.07;;;;;;;23.69;62.87;98653.00;6282864;22;41926;-76
2022/06/23 06:18:56;;;;;;;7.00;6.40;;;;;;;23.87;62.54;98639.94;6283108;22;42292;-77
2022/06/23 06:21:26;;;;;;;8.73;7.83;;;;;;;23.98;62.11;98631.34;6283311;22;40093;-76
2022/06/23 06:23:58;;;;;;;8.10;6.13;;;;;;;24.19;61.38;98638.75;6311075;22;42730;-79
2022/06/23 06:26:33;;;;;;;10.17;8.57;;;;;;;24.35;61.51;98640.44;6282471;22;43785;-77
2022/06/23 06:29:17;;;;;;;9.37;6.33;;;;;;;24.48;61.17;98628.94;6282992;22;43188;-76
2022/06/23 06:31:50;;;;;;;6.17;5.57;;;;;;;24.65;60.90;98644.75;6284037;22;40824;-78
2022/06/23 06:34:24;;;;;;;7.47;6.70;;;;;;;24.51;60.45;98602.31;6284752;22;42119;-77
2022/06/23 06:36:53;;;;;;;5.50;4.77;;;;;;;24.86;60.21;98624.13;6284860;22;41875;-77
2022/06/23 06:39:25;;;;;;;7.70;5.57;;;;;;;25.13;59.95;98636.97;6261074;22;41328;-78
2022/06/23 06:42:00;;;;;;;6.23;5.37;;;;;;;25.36;59.32;98636.75;6286679;22;38916;-77
2022/06/23 06:44:30;;;;;;;4.83;4.37;;;;;;;25.60;58.88;98638.19;6287668;22;44094;-78
2022/06/23 06:46:58;;;;;;;5.53;4.93;;;;;;;25.77;58.75;98620.63;6262769;22;41690;-76
2022/06/23 06:53:21;;;;;;;6.20;5.60;;;;;;;26.34;56.23;98646.66;6286819;22;39169;-76
2022/06/23 06:55:52;;;;;;;5.30;4.70;;;;;;;26.32;56.85;98643.34;6310364;22;42828;-77
2022/06/23 06:58:27;;;;;;;7.33;5.00;;;;;;;26.36;56.91;98633.72;6310174;22;42869;-76
2022/06/23 07:00:58;;;;;;;7.70;5.03;;;;;;;26.40;56.52;98629.56;6283086;22;42279;-80
2022/06/23 07:03:27;;;;;;;5.70;4.73;;;;;;;26.55;56.18;98643.84;6310313;22;40878;-77
2022/06/23 07:05:58;;;;;;;8.50;4.73;;;;;;;26.87;55.33;98646.88;6282501;22;42964;-79
2022/06/23 07:08:30;;;;;;;5.90;4.50;;;;;;;27.44;54.40;98649.94;6283324;22;44047;-79
2022/06/23 07:11:04;;;;;;;9.20;4.17;;;;;;;27.74;53.40;98633.19;6257645;22;42398;-79
2022/06/23 07:13:39;;;;;;;6.60;4.20;;;;;;;28.14;52.64;98651.16;6257810;22;38915;-81
2022/06/23 07:16:14;;;;;;;5.77;4.17;;;;;;;28.21;52.19;98651.16;6283208;22;40495;-82
2022/06/23 07:18:47;;;;;;;4.10;3.70;;;;;;;28.15;52.26;98647.38;6283851;22;42207;-82
2022/06/23 07:21:20;;;;;;;5.30;4.07;;;;;;;28.16;52.57;98643.59;6284619;22;43195;-81
2022/06/23 07:23:54;;;;;;;5.47;4.13;;;;;;;28.22;52.41;98648.22;6284996;22;40962;-80
2022/06/23 07:26:36;;;;;;;5.20;3.50;;;;;;;28.19;52.66;98621.41;6258589;22;41769;-82
2022/06/23 07:29:17;;;;;;;6.07;5.10;;;;;;;28.50;51.29;98652.53;6259278;22;41835;-79
2022/06/23 07:32:29;;;;;;;6.33;5.17;;;;;;;29.10;49.90;98655.81;6282572;22;42580;-80
2022/06/23 07:35:14;;;;;;;5.17;3.77;;;;;;;30.33;47.10;98660.47;6250541;22;40088;-81
2022/06/23 07:37:48;;;;;;;4.87;3.93;;;;;;;31.51;45.04;98668.19;6284596;22;42801;-82
2022/06/23 07:40:20;;;;;;;5.80;4.03;;;;;;;32.07;43.85;98659.44;6258002;22;42769;-76
2022/06/23 07:42:54;;;;;;;5.40;3.23;;;;;;;32.81;42.05;98676.16;6311426;22;42267;-78
2022/06/23 07:45:30;;;;;;;6.00;3.40;;;;;;;33.82;40.57;98686.31;6257655;22;39056;-75
2022/06/23 07:47:58;;;;;;;5.07;3.00;;;;;;;34.72;38.41;98692.59;6283750;22;41436;-76
2022/06/23 07:50:26;;;;;;;5.30;3.43;;;;;;;35.03;37.35;98694.66;6311309;22;44050;-79
2022/06/23 07:52:54;;;;;;;4.73;2.90;;;;;;;34.97;37.51;98690.19;6282977;22;42355;-75
2022/06/23 07:55:25;;;;;;;4.17;2.73;;;;;;;35.00;37.35;98692.41;6284101;22;40749;-82
2022/06/23 07:57:54;;;;;;;4.57;2.67;;;;;;;35.01;37.24;98690.50;6258270;22;40550;-77
2022/06/23 08:00:25;;;;;;;4.83;3.00;;;;;;;35.14;36.75;98684.56;6311443;22;43044;-78
2022/06/23 08:03:00;;;;;;;6.07;3.43;;;;;;;36.23;35.56;98698.00;6284020;22;42257;-78
2022/06/23 08:05:33;;;;;;;4.60;3.00;;;;;;;37.36;33.38;98712.94;6258864;22;39091;-76
2022/06/23 08:08:03;;;;;;;6.95;2.80;;;;;;;38.26;31.91;98718.00;6283730;22;43319;-76
2022/06/23 08:10:32;;;;;;;5.07;2.50;;;;;;;39.54;30.15;98724.75;6310835;22;42857;-77
2022/06/23 08:13:05;;;;;;;4.35;2.42;;;;;;;41.07;28.27;98733.28;6310491;22;42589;-75
2022/06/23 08:18:32;;;;;;;4.78;2.17;;;;;;;43.51;24.68;98738.25;6283116;22;42292;-76
2022/06/23 08:21:06;;;;;;;3.08;2.30;;;;;;;44.45;23.35;98731.75;6257859;22;42460;-79
2022/06/23 08:23:39;;;;;;;4.72;2.65;;;;;;;45.29;23.21;98742.78;6283644;22;43020;-80
2022/06/23 08:26:10;;;;;;;3.42;2.17;;;;;;;45.93;21.66;98741.03;6311596;22;40114;-78
2022/06/23 08:28:39;;;;;;;3.20;1.90;;;;;;;46.19;21.53;98737.38;6258149;22;40665;-78
2022/06/23 08:31:08;;;;;;;5.07;2.08;;;;;;;45.96;21.93;98736.78;6284099;22;41759;-80
2022/06/23 08:33:36;;;;;;;4.63;2.00;;;;;;;45.15;21.82;98714.94;6310852;22;43210;-77
2022/06/23 08:36:10;;;;;;;3.63;2.17;;;;;;;44.56;22.62;98724.75;6311320;22;39943;-81
2022/06/23 08:38:43;;;;;;;4.15;2.05;;;;;;;44.08;22.83;98708.69;6283741;22;41130;-79
2022/06/23 08:41:24;;;;;;;5.80;2.55;;;;;;;44.43;23.04;98714.50;6311356;22;43161;-75
2022/06/23 08:44:01;;;;;;;4.30;2.38;;;;;;;44.68;21.94;98734.16;6258847;22;41110;-79
2022/06/23 08:46:36;;;;;;;3.72;2.03;;;;;;;45.13;22.15;98716.41;6258690;22;38828;-78
2022/06/23 08:49:10;;;;;;;3.88;2.28;;;;;;;45.56;21.17;98727.69;6311504;22;41662;-78
2022/06/23 08:51:45;;;;;;;2.75;2.17;;;;;;;46.10;20.79;98729.00;6258765;22;43173;-78
2022/06/23 08:54:20;;;;;;;5.88;2.67;;;;;;;46.57;19.54;98726.25;6284104;22;42402;-80
2022/06/23 08:56:55;;;;;;;3.65;2.40;;;;;;;45.95;20.70;98721.13;6284553;22;39869;-80
2022/06/23 08:59:29;;;;;;;5.85;2.55;;;;;;;45.20;20.82;98722.38;6284251;22;41623;-81
2022/06/23 09:02:14;;;;;;;5.30;2.47;;;;;;;44.54;21.77;98704.69;6311603;22;43700;-81
2022/06/23 09:04:49;;;;;;;4.88;2.50;;;;;;;44.49;22.02;98702.03;6284079;22;41246;-80
2022/06/23 09:07:27;;;;;;;4.47;2.45;;;;;;;45.03;21.53;98711.94;6258691;22;38739;-78
2022/06/23 09:10:09;;;;;;;6.10;2.63;;;;;;;45.30;21.02;98710.88;6311457;22;41541;-79
2022/06/23 09:12:43;;;;;;;3.42;2.45;;;;;;;44.63;21.48;98713.94;6258045;22;43705;-78
2022/06/23 09:15:48;;;;;;;3.30;2.20;;;;;;;43.05;22.92;98691.00;6284644;22;42970;-82
2022/06/23 09:19:08;;;;;;;4.07;2.70;;;;;;;41.81;24.32;98684.41;6222014;22;38810;-80
2022/06/23 09:21:52;;;;;;;4.35;2.33;;;;;;;42.52;23.34;98691.56;6283639;22;41812;-81
2022/06/23 09:24:41;;;;;;;5.10;2.40;;;;;;;43.70;22.04;98697.91;6284319;22;42670;-78
2022/06/23 09:27:16;;;;;;;5.20;2.78;;;;;;;44.15;21.39;98697.88;6311417;22;42427;-78
2022/06/23 09:29:55;;;;;;;5.40;2.50;;;;;;;43.25;21.81;98690.59;6284067;22;39233;-81
2022/06/23 09:32:33;;;;;;;3.15;1.98;;;;;;;44.02;21.93;98687.63;6258209;22;40617;-80
2022/06/23 09:35:27;;;;;;;3.97;2.40;;;;;;;44.21;21.25;98696.63;6283712;22;42797;-84
2022/06/23 09:38:08;;;;;;;3.30;2.63;;;;;;;43.51;22.10;98649.00;6257929;22;42720;-79
2022/06/23 09:40:44;;;;;;;2.50;2.10;;;;;;;44.11;21.50;98685.72;6283965;22;40532;-81
2022/06/23 09:43:52;;;;;;;2.15;1.95;;;;;;;45.38;20.57;98690.47;6283168;22;43046;-81
2022/06/23 09:46:56;;;;;;;3.15;2.10;;;;;;;46.71;19.25;98698.84;6283629;22;43792;-76
2022/06/23 09:49:42;;;;;;;4.45;2.63;;;;;;;47.73;18.20;98679.69;6272980;22;42099;-81
2022/06/23 09:52:38;;;;;;;5.20;2.80;;;;;;;48.05;17.43;98694.91;6256580;22;39752;-80
2022/06/23 09:55:42;;;;;;;2.95;2.13;;;;;;;48.98;17.60;98682.03;6310735;22;41912;-80
2022/06/23 09:58:33;;;;;;;5.38;2.42;;;;;;;48.51;17.04;98684.50;6255021;22;41716;-81
2022/06/23 10:01:15;;;;;;;2.97;2.53;;;;;;;47.86;17.54;98672.13;6283141;22;42300;-73
2022/06/23 10:03:58;;;;;;;4.65;2.25;;;;;;;46.26;19.16;98671.28;6310458;22;40507;-79
2022/06/23 10:06:43;;;;;;;2.67;2.40;;;;;;;44.23;20.53;98654.41;6257518;22;41940;-81
2022/06/23 10:09:29;;;;;;;5.22;2.67;;;;;;;43.60;21.79;98647.13;6258002;22;43640;-80
2022/06/23 10:12:12;;;;;;;3.45;2.42;;;;;;;43.16;21.98;98636.66;6257998;22;43356;-80
2022/06/23 10:14:53;;;;;;;3.17;2.50;;;;;;;42.01;22.89;98631.25;6257610;22;39159;-77
2022/06/23 10:17:40;;;;;;;4.30;2.50;;;;;;;40.92;24.11;98595.44;6282860;22;42850;-77
2022/06/23 10:20:32;;;;;;;3.40;3.10;;;;;;;40.91;24.04;98613.22;6310415;22;43465;-79
2022/06/23 10:23:22;;;;;;;3.92;2.47;;;;;;;40.88;24.53;98608.28;6273768;22;42475;-76
2022/06/23 10:26:09;;;;;;;3.42;2.53;;;;;;;40.85;24.38;98612.47;6258027;22;40613;-80
2022/06/23 10:29:13;;;;;;;3.53;2.35;;;;;;;40.10;24.46;98615.00;6310480;22;41923;-77
2022/06/23 10:32:06;;;;;;;2.90;2.53;;;;;;;39.91;25.23;98608.56;6310319;22;42776;-78
2022/06/23 10:34:47;;;;;;;2.77;2.30;;;;;;;39.42;25.48;98601.22;6283093;22;43209;-80
2022/06/23 10:37:43;;;;;;;3.50;2.47;;;;;;;39.23;25.46;98596.63;6311014;22;41343;-78
2022/06/23 10:40:48;;;;;;;3.42;2.30;;;;;;;39.01;25.50;98599.81;6311502;22;41673;-79
2022/06/23 10:43:51;;;;;;;5.07;2.40;;;;;;;38.72;25.91;98592.22;6283103;22;41906;-76
2022/06/23 10:46:25;;;;;;;3.30;2.22;;;;;;;38.95;26.74;98579.59;6245622;22;43302;-79
2022/06/23 10:49:23;;;;;;;2.67;2.13;;;;;;;39.13;25.80;98581.72;6283618;22;41068;-78
2022/06/23 10:52:20;;;;;;;4.47;3.25;;;;;;;39.14;25.17;98577.03;6283442;22;41977;-78
2022/06/23 10:55:15;;;;;;;5.55;2.47;;;;;;;39.43;25.87;98583.47;6311461;22;43640;-79
2022/06/23 10:58:13;;;;;;;2.33;2.13;;;;;;;40.06;25.81;98580.63;6257631;22;43005;-78
2022/06/23 11:00:49;;;;;;;5.80;2.40;;;;;;;39.86;24.73;98578.09;6257892;22;40070;-78
2022/06/23 11:03:34;;;;;;;4.68;2.10;;;;;;;39.58;25.25;98581.66;6256751;22;40768;-74
2022/06/23 11:06:20;;;;;;;3.33;2.25;;;;;;;39.48;26.25;98572.34;6257607;22;42361;-76
2022/06/23 11:09:09;;;;;;;3.45;2.53;;;;;;;39.36;25.62;98559.94;6310413;22;42242;-78
2022/06/23 11:12:09;;;;;;;3.47;2.55;;;;;;;39.31;25.33;98569.13;6283509;22;39000;-77
2022/06/23 11:14:54;;;;;;;3.70;2.72;;;;;;;39.36;24.92;98574.63;6257527;22;41040;-76
2022/06/23 11:17:30;;;;;;;2.72;2.42;;;;;;;39.29;24.75;98570.53;6257145;22;44258;-76
2022/06/23 11:20:12;;;;;;;2.67;2.45;;;;;;;39.27;25.05;98558.91;6283117;22;43169;-73
2022/06/23 11:22:47;;;;;;;3.67;2.88;;;;;;;39.27;25.86;98543.13;6283033;22;40214;-76
2022/06/23 11:25:38;;;;;;;3.20;2.80;;;;;;;39.28;25.89;98550.31;6282962;22;42713;-74
2022/06/23 11:28:11;;;;;;;5.05;2.80;;;;;;;39.42;25.69;98540.25;6282710;22;42887;-77
2022/06/23 11:30:50;;;;;;;3.70;2.83;;;;;;;39.40;24.81;98547.16;6257554;22;42647;-76
2022/06/23 11:33:40;;;;;;;3.00;2.65;;;;;;;39.28;24.92;98549.50;6257381;22;40067;-78
2022/06/23 11:36:40;;;;;;;2.60;2.40;;;;;;;39.23;24.17;98558.66;6284924;22;20179;-78
2022/06/23 11:39:34;;;;;;;3.55;2.80;;;;;;;39.26;25.05;98540.63;6310121;22;43316;-75
2022/06/23 11:42:27;;;;;;;2.75;2.40;;;;;;;39.48;25.26;98539.06;6282800;22;42172;-78
2022/06/23 11:45:09;;;;;;;2.60;2.40;;;;;;;39.70;25.07;98501.69;6283274;22;40239;-79
2022/06/23 11:47:50;;;;;;;4.93;2.58;;;;;;;40.27;23.73;98536.84;6282927;22;42529;-80
2022/06/23 11:50:25;;;;;;;2.53;2.30;;;;;;;40.94;23.38;98540.38;6310568;22;42676;-82
2022/06/23 11:53:10;;;;;;;4.03;2.88;;;;;;;41.62;21.98;98558.50;6256793;22;41918;-79
2022/06/23 11:55:44;;;;;;;3.83;2.63;;;;;;;40.90;22.36;98536.56;6283313;22;40526;-78
2022/06/23 11:58:32;;;;;;;3.78;2.70;;;;;;;41.14;23.28;98528.16;6309465;22;42825;-78
2022/06/23 12:01:15;;;;;;;3.88;2.80;;;;;;;41.38;21.78;98537.19;6309328;22;42734;-75
2022/06/23 12:04:00;;;;;;;3.55;2.80;;;;;;;41.12;22.68;98533.16;6256113;22;44412;-75
2022/06/23 12:06:40;;;;;;;3.13;2.47;;;;;;;41.63;22.33;98532.34;6284022;22;38967;-77
2022/06/23 12:09:21;;;;;;;4.65;2.72;;;;;;;42.40;21.34;98529.75;6284596;22;41917;-80
2022/06/23 12:11:49;;;;;;;3.60;2.80;;;;;;;43.73;20.62;98533.78;6284339;22;42859;-80
2022/06/23 12:14:19;;;;;;;3.80;2.67;;;;;;;44.91;19.04;98514.09;6310971;22;42283;-82
2022/06/23 12:16:53;;;;;;;3.15;2.50;;;;;;;45.80;18.20;98535.72;6284245;22;40349;-80
2022/06/23 12:19:26;;;;;;;3.58;2.50;;;;;;;46.40;17.83;98537.44;6284143;22;41861;-76
2022/06/23 12:22:00;;;;;;;3.85;2.67;;;;;;;47.21;17.36;98549.41;6283784;22;44275;-77
2022/06/23 12:24:37;;;;;;;2.90;2.50;;;;;;;45.49;18.40;98529.53;6258176;22;41116;-77
2022/06/23 12:27:16;;;;;;;2.90;2.60;;;;;;;46.26;18.07;98531.22;6284227;22;39986;-80
2022/06/23 12:29:52;;;;;;;3.83;2.42;;;;;;;47.64;16.64;98530.16;6258046;22;41773;-79
2022/06/23 12:32:35;;;;;;;2.80;2.40;;;;;;;47.19;16.71;98530.94;6283534;22;42594;-78
2022/06/23 12:35:13;;;;;;;4.00;2.70;;;;;;;45.75;17.43;98526.66;6283884;22;41654;-79
2022/06/23 12:37:44;;;;;;;2.28;2.08;;;;;;;44.36;18.86;98511.91;6284006;22;40929;-77